Raton, NM

8:21 AM MST on December 28, 2014 (GMT -0700)
Near Historic Downtown | Change Station
CLOSE
Current Station
Personal Weather Station
Location: Raton, NM
Elevation: 6709 ft
Nearby Weather Stations

Elev 6709 ft 36.90 °N, 104.44 °W | Updated 13 minutes ago

Clear
Clear
12.8 °F
Feels Like 13 °F
N
0.0
Wind Variable Wind from East

Today
High -- | Low -- °F
--% Chance of Precip.
Yesterday
High -- | Low -- °F
Precip. -- in
7:10 AM 4:49 PM
Waxing Crescent, 48% visible
Pressure 30.24 in
Visibility 10.0 miles
Clouds Clear
Windchill 13 °F
Dew Point 11 °F
Humidity 92%
Rainfall 0.00 in
Snow Depth Not available.
UV 0 out of 12
Pollen .10 out of 12
Air Quality Not available.
Flu Activity Not available.
METAR KRTN 281453Z AUTO 05008KT 10SM CLR M16/M18 A2996 RMK AO2 SLP238 T11561178 58004

More Conditions Fewer Conditions

Pressure 30.24 in
Visibility 10.0 miles
Clouds Clear
Windchill 13 °F
Dew Point 11 °F
Humidity 92%
Rainfall 0.00 in
Snow Depth Not available.
UV 0 out of 12
Pollen .10 out of 12
Air Quality Not available.
Flu Activity Not available.
METAR KRTN 281453Z AUTO 05008KT 10SM CLR M16/M18 A2996 RMK AO2 SLP238 T11561178 58004

More Conditions Fewer Conditions

10-Day Weather Forecast

Almanac

Astronomy

Dec. 28, 2014 Rise Set
Actual Time
Civil Twilight
Nautical Twilight
Astronomical Twilight
Moon
Length of Visible Light
Length of Day
Tomorrow will be .
, % of the Moon is Illuminated

Today's Extremes

State Highs State Lows

Community

WunderPhotos

Upload Photos

1,781,305 photos uploaded!

WunderBlogs® & News

Nearby

Air Quality

  Air Quality AQ Index Pollutant
Not available.

Snow Depth

Station Depth Elevation

Earthquake Activity

City Distance Mag. Time & Date
Minimum magnitude displayed is 2.5.

Coastal Water Temperatures

Place Temperature

Nearby Weather Stations